Time;durP1;ratioP1;P1;durP2;ratioP2;P2;SDS_P1;SDS_P2;PMS_P1;PMS_P2;Temp;Humidity;BMP_temperature;BMP_pressure;BME280_temperature;BME280_humidity;BME280_pressure;Samples;Min_cycle;Max_cycle;Signal;HPM_P1;HPM_P2
2022/02/01 00:00:19;;;;;;;12.07;5.30;;;0.80;99.90;;;;;;5148548;27;20228;-67
2022/02/01 00:02:51;;;;;;;10.23;5.60;;;0.80;99.90;;;;;;5122390;27;20657;-67
2022/02/01 00:05:23;;;;;;;14.70;6.30;;;0.80;99.90;;;;;;5124576;27;20215;-67
2022/02/01 00:08:00;;;;;;;12.33;6.37;;;0.90;99.90;;;;;;5115757;28;20236;-67
2022/02/01 00:10:40;;;;;;;17.10;7.17;;;0.90;99.90;;;;;;5127750;27;20215;-67
2022/02/01 00:13:14;;;;;;;10.77;5.50;;;0.90;99.90;;;;;;5115538;27;20256;-67
2022/02/01 00:19:03;;;;;;;11.60;6.13;;;0.80;99.90;;;;;;5080570;28;20213;-67
2022/02/01 00:38:00;;;;;;;13.40;5.87;;;0.80;99.90;;;;;;5120965;27;20652;-67
2022/02/01 00:40:27;;;;;;;12.87;5.23;;;0.80;99.90;;;;;;5132338;27;20208;-67
2022/02/01 00:42:54;;;;;;;12.27;6.13;;;0.70;99.90;;;;;;5133452;27;20302;-66
2022/02/01 00:45:22;;;;;;;12.57;5.93;;;0.70;99.90;;;;;;5140124;27;20219;-68
2022/02/01 00:47:50;;;;;;;8.27;4.97;;;0.70;99.90;;;;;;5121853;27;20253;-67
2022/02/01 00:50:17;;;;;;;11.73;5.63;;;0.60;99.90;;;;;;5129577;27;20200;-68
2022/02/01 00:52:45;;;;;;;9.47;5.33;;;0.60;99.90;;;;;;5114621;28;20207;-67
2022/02/01 00:55:12;;;;;;;11.73;5.93;;;0.60;99.90;;;;;;5129989;27;20235;-67
2022/02/01 00:57:39;;;;;;;9.97;5.57;;;0.60;99.90;;;;;;5128812;27;20230;-67
2022/02/01 01:00:09;;;;;;;9.63;5.50;;;0.60;99.90;;;;;;5115231;27;20584;-67
2022/02/01 01:02:37;;;;;;;10.37;4.80;;;0.60;99.90;;;;;;5119721;27;20231;-67
2022/02/01 01:05:06;;;;;;;12.80;4.97;;;0.70;99.90;;;;;;5130658;27;20224;-66
2022/02/01 01:07:34;;;;;;;14.97;4.80;;;0.60;99.90;;;;;;5121997;27;20918;-67
2022/02/01 01:10:01;;;;;;;9.77;4.73;;;0.60;99.90;;;;;;5114714;28;20205;-68
2022/02/01 01:12:31;;;;;;;9.97;4.97;;;0.60;99.90;;;;;;5122229;27;20215;-67
2022/02/01 01:15:16;;;;;;;12.40;4.83;;;0.70;99.90;;;;;;5117781;27;20199;-67
2022/02/01 01:18:09;;;;;;;10.47;4.93;;;0.70;99.90;;;;;;5120095;27;20214;-68
2022/02/01 01:45:18;;;;;;;7.80;4.23;;;0.50;99.90;;;;;;5113473;27;20290;-66
2022/02/01 01:53:18;;;;;;;8.97;3.97;;;0.40;99.90;;;;;;5124823;27;20237;-69
2022/02/01 01:55:49;;;;;;;8.07;3.93;;;0.40;99.90;;;;;;5117935;27;20203;-67
2022/02/01 01:58:16;;;;;;;8.53;4.10;;;0.40;99.90;;;;;;5132081;27;20211;-66
2022/02/01 02:03:43;;;;;;;9.97;4.00;;;0.50;99.90;;;;;;5049395;28;20735;-68
2022/02/01 02:06:11;;;;;;;11.27;4.17;;;0.50;99.90;;;;;;5104725;27;20223;-67
2022/02/01 02:08:40;;;;;;;12.43;4.07;;;0.50;99.90;;;;;;5121061;27;20203;-67
2022/02/01 02:11:08;;;;;;;6.93;4.13;;;0.50;99.90;;;;;;5112744;28;20204;-67
2022/02/01 02:16:21;;;;;;;6.87;3.93;;;0.60;99.90;;;;;;5124447;27;20182;-67
2022/02/01 02:18:48;;;;;;;8.13;3.70;;;0.50;99.90;;;;;;5125928;27;20214;-67
2022/02/01 02:21:18;;;;;;;8.20;3.53;;;0.50;99.90;;;;;;5124620;27;20195;-67
2022/02/01 02:23:45;;;;;;;11.07;4.53;;;0.50;99.90;;;;;;5113586;28;20226;-67
2022/02/01 02:26:14;;;;;;;12.37;4.17;;;0.50;99.90;;;;;;5130578;27;20223;-67
2022/02/01 02:28:41;;;;;;;14.03;4.03;;;0.40;99.90;;;;;;5123896;27;20266;-66
2022/02/01 02:31:08;;;;;;;9.97;3.83;;;0.40;99.90;;;;;;5116415;27;20271;-66
2022/02/01 02:33:35;;;;;;;8.77;3.87;;;0.50;99.90;;;;;;5116381;27;20203;-66
2022/02/01 02:36:05;;;;;;;9.63;3.77;;;0.40;99.90;;;;;;5115081;27;20231;-67
2022/02/01 02:38:39;;;;;;;5.50;3.40;;;0.40;99.90;;;;;;5112771;28;20196;-66
2022/02/01 02:41:33;;;;;;;11.07;3.90;;;0.50;99.90;;;;;;5122537;27;20595;-67
2022/02/01 02:46:47;;;;;;;9.03;2.97;;;0.50;99.90;;;;;;5114058;28;20582;-66
2022/02/01 02:49:15;;;;;;;8.77;3.40;;;0.60;99.90;;;;;;5117269;27;20204;-67
2022/02/01 02:51:43;;;;;;;8.00;3.30;;;0.60;99.90;;;;;;5114995;27;20579;-67
2022/02/01 02:54:12;;;;;;;7.90;3.40;;;0.60;99.90;;;;;;5114007;28;20642;-67
2022/02/01 02:56:42;;;;;;;10.97;3.73;;;0.60;99.90;;;;;;5120326;27;20231;-67
2022/02/01 02:59:10;;;;;;;5.93;3.23;;;0.50;99.90;;;;;;5112641;28;20206;-67
2022/02/01 03:01:38;;;;;;;7.07;3.60;;;0.60;99.90;;;;;;5112411;28;20215;-68
2022/02/01 03:04:05;;;;;;;8.37;3.47;;;0.60;99.90;;;;;;5127165;27;20626;-67
2022/02/01 03:06:32;;;;;;;7.23;3.07;;;0.70;99.90;;;;;;5121941;28;20863;-67
2022/02/01 03:08:59;;;;;;;5.87;3.30;;;0.70;99.90;;;;;;5116686;28;20203;-67
2022/02/01 03:11:27;;;;;;;6.37;3.23;;;0.70;99.90;;;;;;5116546;28;20203;-67
2022/02/01 03:13:57;;;;;;;9.33;3.33;;;0.60;99.90;;;;;;5116253;28;20282;-66
2022/02/01 03:21:51;;;;;;;6.07;2.93;;;0.60;99.90;;;;;;5115180;28;20631;-67
2022/02/01 03:24:18;;;;;;;8.17;3.40;;;0.60;99.90;;;;;;5121821;28;20227;-67
2022/02/01 03:26:46;;;;;;;6.07;3.40;;;0.60;99.90;;;;;;5116751;28;20241;-67
2022/02/01 03:29:14;;;;;;;8.13;3.13;;;0.60;99.90;;;;;;5112671;28;20206;-67
2022/02/01 03:31:41;;;;;;;6.70;3.30;;;0.60;99.90;;;;;;5116730;28;20207;-67
2022/02/01 03:34:08;;;;;;;8.03;3.50;;;0.50;99.90;;;;;;5123785;27;20241;-66
2022/02/01 03:36:35;;;;;;;5.90;3.20;;;0.60;99.90;;;;;;5127056;28;20291;-67
2022/02/01 03:39:02;;;;;;;6.97;3.50;;;0.60;99.90;;;;;;5112232;28;20687;-68
2022/02/01 03:41:29;;;;;;;6.03;3.60;;;0.60;99.90;;;;;;5119942;27;20253;-67
2022/02/01 03:43:59;;;;;;;8.13;3.27;;;0.60;99.90;;;;;;5119991;27;20206;-67
2022/02/01 03:46:26;;;;;;;8.90;3.13;;;0.60;99.90;;;;;;5120908;27;20692;-67
2022/02/01 03:48:53;;;;;;;7.90;3.23;;;0.60;99.90;;;;;;5115063;28;20207;-67
2022/02/01 03:51:20;;;;;;;9.73;3.40;;;0.50;99.90;;;;;;5132402;27;20243;-67
2022/02/01 03:53:47;;;;;;;8.33;3.03;;;0.40;99.90;;;;;;5131360;27;20648;-68
2022/02/01 03:56:14;;;;;;;9.67;3.67;;;0.30;99.90;;;;;;5132399;27;20216;-68
2022/02/01 03:58:41;;;;;;;10.70;3.40;;;0.30;99.90;;;;;;5126117;28;20235;-68
2022/02/01 04:01:09;;;;;;;7.53;3.70;;;0.30;99.90;;;;;;5113717;27;20246;-67
2022/02/01 04:03:36;;;;;;;10.47;4.17;;;0.30;99.90;;;;;;5122027;27;20207;-67
2022/02/01 04:06:02;;;;;;;6.53;3.20;;;0.40;99.90;;;;;;5112754;28;20673;-67
2022/02/01 04:08:29;;;;;;;6.07;3.30;;;0.40;99.90;;;;;;5123198;27;20649;-67
2022/02/01 04:10:56;;;;;;;9.13;3.50;;;0.30;99.90;;;;;;5122335;27;20199;-66
2022/02/01 04:13:23;;;;;;;8.30;3.90;;;0.30;99.90;;;;;;5126164;27;20303;-67
2022/02/01 04:15:50;;;;;;;8.40;3.90;;;0.30;99.90;;;;;;5115536;28;20235;-67
2022/02/01 04:18:18;;;;;;;9.50;3.87;;;0.30;99.90;;;;;;5124500;27;20211;-67
2022/02/01 04:20:45;;;;;;;7.13;3.77;;;0.30;99.90;;;;;;5136460;27;20207;-67
2022/02/01 04:23:12;;;;;;;11.03;4.77;;;0.20;99.90;;;;;;5141789;27;20207;-66
2022/02/01 04:25:39;;;;;;;14.47;4.37;;;0.20;99.90;;;;;;5122867;27;20731;-66
2022/02/01 04:28:06;;;;;;;7.80;4.07;;;0.10;99.90;;;;;;5129453;27;20264;-67
2022/02/01 04:30:33;;;;;;;9.97;4.30;;;0.10;99.90;;;;;;5127076;27;20423;-67
2022/02/01 04:33:00;;;;;;;11.87;4.83;;;0.10;99.90;;;;;;5133445;27;20200;-67
2022/02/01 04:35:30;;;;;;;10.13;4.77;;;0.00;99.90;;;;;;5141889;27;20195;-66
2022/02/01 04:37:57;;;;;;;10.07;5.03;;;0.00;99.90;;;;;;5119062;27;20657;-66
2022/02/01 04:40:26;;;;;;;11.23;5.00;;;-0.10;99.90;;;;;;5126431;27;20255;-67
2022/02/01 04:42:54;;;;;;;9.13;4.83;;;-0.10;99.90;;;;;;5125777;27;20215;-67
2022/02/01 04:45:23;;;;;;;12.00;5.70;;;-0.10;99.90;;;;;;5128204;27;20290;-67
2022/02/01 04:47:51;;;;;;;11.47;5.73;;;-0.10;99.90;;;;;;5114638;28;20227;-67
2022/02/01 04:50:20;;;;;;;9.63;5.00;;;-0.20;99.90;;;;;;5140613;27;20313;-66
2022/02/01 04:52:51;;;;;;;9.40;5.37;;;-0.20;99.90;;;;;;5142548;27;20295;-66
2022/02/01 04:55:19;;;;;;;9.50;5.87;;;-0.20;99.90;;;;;;5118186;27;20223;-68
2022/02/01 04:57:54;;;;;;;11.77;5.80;;;-0.20;99.90;;;;;;5126152;27;20311;-67
2022/02/01 05:00:23;;;;;;;13.87;6.37;;;-0.30;99.90;;;;;;5121450;27;20202;-66
2022/02/01 05:02:49;;;;;;;10.17;5.60;;;-0.30;99.90;;;;;;5143846;27;20203;-67
2022/02/01 05:05:18;;;;;;;11.40;6.03;;;-0.40;99.90;;;;;;5128410;27;20204;-67
2022/02/01 05:07:45;;;;;;;13.30;6.13;;;-0.40;99.90;;;;;;5128785;27;20236;-67
2022/02/01 05:10:15;;;;;;;15.70;6.73;;;-0.40;99.90;;;;;;5120923;27;20740;-68
2022/02/01 05:12:42;;;;;;;15.00;6.13;;;-0.40;99.90;;;;;;5139606;27;20212;-67
2022/02/01 05:15:09;;;;;;;13.93;6.30;;;-0.40;99.90;;;;;;5113854;28;20206;-68
2022/02/01 05:17:40;;;;;;;11.83;6.60;;;-0.40;99.90;;;;;;5127907;27;20203;-67
2022/02/01 05:20:21;;;;;;;13.10;6.50;;;-0.50;99.90;;;;;;5134584;27;20226;-67
2022/02/01 05:22:48;;;;;;;12.70;6.13;;;-0.50;99.90;;;;;;5120280;27;20607;-67
2022/02/01 05:25:16;;;;;;;14.50;6.63;;;-0.50;99.90;;;;;;5132200;27;20256;-67
2022/02/01 05:27:43;;;;;;;12.00;6.23;;;-0.50;99.90;;;;;;5118652;27;20306;-68
2022/02/01 05:30:11;;;;;;;15.33;7.00;;;-0.50;99.90;;;;;;5136300;27;20316;-67
2022/02/01 05:32:38;;;;;;;14.43;6.73;;;-0.40;99.90;;;;;;5137377;27;20204;-67
2022/02/01 05:35:05;;;;;;;12.63;6.63;;;-0.40;99.90;;;;;;5129484;27;20214;-67
2022/02/01 05:37:32;;;;;;;15.53;6.53;;;-0.40;99.90;;;;;;5133687;27;20207;-67
2022/02/01 05:39:59;;;;;;;14.53;7.03;;;-0.50;99.90;;;;;;5128556;27;20612;-67
2022/02/01 05:42:39;;;;;;;16.20;7.53;;;-0.50;99.90;;;;;;5127542;27;20720;-67
2022/02/01 05:45:07;;;;;;;13.60;7.03;;;-0.50;99.90;;;;;;5114862;27;20207;-66
2022/02/01 05:47:34;;;;;;;14.23;7.40;;;-0.50;99.90;;;;;;5118261;27;20696;-66
2022/02/01 05:50:01;;;;;;;17.33;7.30;;;-0.50;99.90;;;;;;5125081;27;20203;-66
2022/02/01 05:52:28;;;;;;;13.77;6.47;;;-0.60;99.90;;;;;;5134729;27;20210;-67
2022/02/01 05:54:54;;;;;;;16.97;7.67;;;-0.60;99.90;;;;;;5117706;27;20239;-67
2022/02/01 05:57:24;;;;;;;17.27;8.37;;;-0.60;99.90;;;;;;5125079;27;20298;-67
2022/02/01 05:59:52;;;;;;;14.00;7.20;;;-0.60;99.90;;;;;;5119383;27;20199;-66
2022/02/01 06:02:19;;;;;;;16.57;7.50;;;-0.70;99.90;;;;;;5117832;27;20211;-66
2022/02/01 06:04:46;;;;;;;11.97;6.90;;;-0.70;99.90;;;;;;5124389;27;20627;-66
2022/02/01 06:07:13;;;;;;;13.33;7.13;;;-0.70;99.90;;;;;;5128417;27;20227;-68
2022/02/01 06:09:40;;;;;;;13.40;6.77;;;-0.80;99.90;;;;;;5113603;28;20550;-67
2022/02/01 06:12:08;;;;;;;14.13;7.83;;;-0.80;99.90;;;;;;5113356;27;20250;-67
2022/02/01 06:14:35;;;;;;;20.00;8.20;;;-0.90;99.90;;;;;;5112684;28;20236;-65
2022/02/01 06:17:04;;;;;;;13.20;6.60;;;-0.90;99.90;;;;;;5112633;28;20202;-67
2022/02/01 06:19:31;;;;;;;15.53;8.07;;;-0.90;99.90;;;;;;5132279;27;20572;-68
2022/02/01 06:21:58;;;;;;;16.10;7.33;;;-0.90;99.90;;;;;;5127402;27;20627;-66
2022/02/01 06:24:25;;;;;;;13.83;7.40;;;-1.00;99.90;;;;;;5131950;27;20211;-73
2022/02/01 06:26:51;;;;;;;16.40;7.80;;;-1.00;99.90;;;;;;5125201;27;20229;-74
2022/02/01 06:29:18;;;;;;;16.93;8.07;;;-1.00;99.90;;;;;;5148761;27;20222;-73
2022/02/01 06:31:45;;;;;;;14.30;7.27;;;-1.10;99.90;;;;;;5137268;27;20210;-75
2022/02/01 06:34:14;;;;;;;14.60;7.67;;;-1.10;99.90;;;;;;5146519;27;20212;-72
2022/02/01 06:36:41;;;;;;;19.13;8.47;;;-1.10;99.90;;;;;;5125367;27;20285;-74
2022/02/01 06:39:09;;;;;;;14.70;8.33;;;-1.20;99.90;;;;;;5142106;27;20314;-72
2022/02/01 06:41:36;;;;;;;13.57;7.57;;;-1.10;99.90;;;;;;5122091;27;20299;-71
2022/02/01 06:44:04;;;;;;;13.47;8.10;;;-1.10;99.90;;;;;;5116353;28;20287;-72
2022/02/01 06:46:31;;;;;;;14.90;8.10;;;-1.10;99.90;;;;;;5114842;28;20276;-72
2022/02/01 06:48:58;;;;;;;19.00;8.67;;;-1.10;99.90;;;;;;5118397;27;20236;-72
2022/02/01 06:51:28;;;;;;;16.77;8.73;;;-1.10;99.90;;;;;;5123845;27;20455;-72
2022/02/01 06:53:56;;;;;;;18.13;8.47;;;-1.00;99.90;;;;;;5132589;27;20219;-69
2022/02/01 06:56:28;;;;;;;10.80;7.20;;;-1.00;99.90;;;;;;5128799;27;20224;-69
2022/02/01 06:58:57;;;;;;;15.83;8.33;;;-0.90;99.90;;;;;;5124199;27;20203;-70
2022/02/01 07:01:24;;;;;;;16.47;7.40;;;-0.80;99.90;;;;;;5140237;27;20206;-70
2022/02/01 07:03:51;;;;;;;15.03;7.80;;;-0.70;99.90;;;;;;5135927;27;20615;-70
2022/02/01 07:06:19;;;;;;;15.27;7.93;;;-0.70;99.90;;;;;;5134243;27;20316;-68
2022/02/01 07:08:49;;;;;;;15.83;7.47;;;-0.60;99.90;;;;;;5133988;27;20659;-72
2022/02/01 07:11:17;;;;;;;14.53;6.70;;;-0.60;99.90;;;;;;5142860;27;20202;-69
2022/02/01 07:13:46;;;;;;;16.77;7.77;;;-0.40;99.90;;;;;;5133886;28;20200;-70
2022/02/01 07:16:13;;;;;;;13.43;6.53;;;-0.40;99.90;;;;;;5134104;27;20204;-70
2022/02/01 07:18:40;;;;;;;15.23;7.57;;;-0.30;99.90;;;;;;5140244;27;20202;-70
2022/02/01 07:21:08;;;;;;;13.43;6.67;;;-0.20;99.90;;;;;;5135975;27;20209;-71
2022/02/01 07:23:35;;;;;;;18.53;8.37;;;-0.20;99.90;;;;;;5134721;27;20231;-70
2022/02/01 07:26:04;;;;;;;15.73;7.40;;;-0.10;99.90;;;;;;5133602;28;20633;-69
2022/02/01 07:28:33;;;;;;;12.80;8.03;;;-0.10;99.90;;;;;;5134510;27;20302;-69
2022/02/01 07:31:00;;;;;;;16.20;7.40;;;0.00;99.90;;;;;;5136065;27;20207;-71
2022/02/01 07:33:28;;;;;;;12.50;6.83;;;0.10;99.90;;;;;;5144309;27;20259;-69
2022/02/01 07:35:56;;;;;;;13.97;6.90;;;0.10;99.90;;;;;;5140806;27;20228;-70
2022/02/01 07:38:25;;;;;;;13.07;7.13;;;0.20;99.90;;;;;;5130654;28;20203;-71
2022/02/01 07:40:54;;;;;;;14.93;8.13;;;0.30;99.90;;;;;;5136048;27;21470;-70
2022/02/01 07:43:24;;;;;;;15.67;7.80;;;0.30;99.90;;;;;;5131920;27;20219;-72
2022/02/01 07:45:52;;;;;;;14.83;8.13;;;0.30;99.90;;;;;;5139514;27;20206;-70
2022/02/01 07:48:19;;;;;;;14.73;7.50;;;0.40;99.90;;;;;;5147403;27;20211;-72
2022/02/01 07:50:46;;;;;;;13.37;7.57;;;0.40;99.90;;;;;;5139209;27;20210;-71
2022/02/01 07:53:13;;;;;;;14.90;7.10;;;0.40;99.90;;;;;;5139511;27;20208;-69
2022/02/01 07:55:40;;;;;;;15.07;7.67;;;0.50;99.90;;;;;;5140259;27;20229;-71
2022/02/01 07:58:07;;;;;;;12.40;7.27;;;0.60;99.90;;;;;;5139837;27;20314;-73
2022/02/01 08:00:36;;;;;;;12.43;6.47;;;0.80;99.90;;;;;;5133358;27;20195;-71
2022/02/01 08:03:03;;;;;;;11.40;6.70;;;0.90;99.90;;;;;;5153327;27;20222;-71
2022/02/01 08:05:32;;;;;;;14.13;6.43;;;0.90;99.90;;;;;;5141803;27;20207;-71
2022/02/01 08:08:00;;;;;;;11.63;6.90;;;1.00;99.90;;;;;;5127467;27;20235;-70
2022/02/01 08:10:35;;;;;;;10.17;6.40;;;1.10;99.90;;;;;;5152504;27;20190;-71
2022/02/01 08:13:47;;;;;;;10.00;6.03;;;1.30;99.90;;;;;;5144526;27;20232;-70
2022/02/01 08:16:32;;;;;;;13.67;7.23;;;1.60;99.90;;;;;;5143371;27;20204;-69
2022/02/01 08:19:03;;;;;;;14.47;6.47;;;2.00;99.90;;;;;;5146767;27;20205;-71
2022/02/01 08:21:39;;;;;;;11.43;6.43;;;2.20;99.90;;;;;;5139586;27;20690;-72
2022/02/01 08:24:07;;;;;;;13.47;6.90;;;2.30;99.90;;;;;;5148727;27;20180;-71
2022/02/01 08:26:34;;;;;;;9.97;5.97;;;2.30;99.90;;;;;;5129082;27;20214;-73
2022/02/01 08:29:01;;;;;;;9.20;5.80;;;2.30;99.90;;;;;;5130756;27;20222;-72
2022/02/01 08:31:30;;;;;;;11.63;6.17;;;2.30;99.90;;;;;;5135065;27;20218;-71
2022/02/01 08:33:56;;;;;;;12.60;6.70;;;2.40;99.90;;;;;;5145031;27;20206;-70
2022/02/01 08:36:23;;;;;;;11.93;6.40;;;2.60;99.90;;;;;;5121690;27;20665;-69
2022/02/01 08:38:50;;;;;;;13.87;7.33;;;2.80;99.90;;;;;;5126388;27;20242;-70
2022/02/01 08:41:18;;;;;;;12.20;7.97;;;2.90;99.90;;;;;;5134427;27;20223;-71
2022/02/01 08:43:45;;;;;;;13.30;8.67;;;3.00;99.90;;;;;;5130914;27;20306;-69
2022/02/01 08:46:12;;;;;;;14.07;8.17;;;3.00;99.90;;;;;;5125617;27;20199;-69
2022/02/01 08:48:40;;;;;;;14.00;7.80;;;3.20;99.90;;;;;;5129084;27;20286;-70
2022/02/01 08:51:10;;;;;;;10.87;5.70;;;3.30;99.90;;;;;;5138457;27;20214;-70
2022/02/01 08:53:46;;;;;;;13.27;6.07;;;3.50;99.90;;;;;;5120299;27;20580;-68
2022/02/01 08:57:21;;;;;;;9.70;5.13;;;3.70;99.90;;;;;;5128511;27;20245;-69
2022/02/01 08:59:01;;;;;;;11.67;5.87;;;3.80;99.90;;;;;;5136021;27;20202;-68
2022/02/01 09:01:28;;;;;;;10.60;5.50;;;3.80;99.90;;;;;;5133521;27;20281;-69
2022/02/01 09:03:56;;;;;;;12.03;4.93;;;3.80;99.90;;;;;;5133501;27;20232;-68
2022/02/01 09:06:24;;;;;;;12.17;5.23;;;3.90;99.90;;;;;;5134575;27;20798;-68
2022/02/01 09:08:53;;;;;;;10.40;5.00;;;3.70;99.90;;;;;;5133616;27;20706;-69
2022/02/01 09:11:20;;;;;;;8.70;5.27;;;3.60;99.90;;;;;;5129367;27;20208;-70
2022/02/01 09:13:47;;;;;;;10.37;5.17;;;3.40;99.90;;;;;;5129053;27;20618;-70
2022/02/01 09:16:14;;;;;;;11.40;5.03;;;3.70;99.90;;;;;;5135931;27;20210;-70
2022/02/01 09:18:41;;;;;;;11.10;5.80;;;3.30;99.90;;;;;;5133821;27;20291;-69
2022/02/01 09:21:09;;;;;;;12.27;5.63;;;3.20;99.90;;;;;;5134602;27;20207;-70
2022/02/01 09:23:36;;;;;;;10.93;5.73;;;3.10;99.90;;;;;;5143528;27;20281;-69
2022/02/01 09:26:03;;;;;;;13.97;6.83;;;3.00;99.90;;;;;;5120820;27;20211;-68
2022/02/01 09:28:30;;;;;;;10.47;6.10;;;3.00;99.90;;;;;;5135494;27;20230;-70
2022/02/01 09:30:58;;;;;;;12.40;6.13;;;3.20;99.90;;;;;;5140029;27;20211;-70
2022/02/01 09:33:25;;;;;;;13.40;6.40;;;3.30;99.90;;;;;;5136999;27;20560;-69
2022/02/01 09:35:52;;;;;;;11.70;6.57;;;3.30;99.90;;;;;;5136314;27;20672;-70
2022/02/01 09:38:21;;;;;;;9.33;5.13;;;3.40;99.90;;;;;;5137710;27;20211;-69
2022/02/01 09:40:50;;;;;;;12.67;5.93;;;3.40;99.90;;;;;;5142793;27;20211;-69
2022/02/01 09:43:18;;;;;;;9.37;5.17;;;3.20;99.90;;;;;;5138647;27;20215;-69
2022/02/01 09:45:45;;;;;;;10.27;5.10;;;3.20;99.90;;;;;;5142022;27;20242;-69
2022/02/01 09:48:12;;;;;;;9.67;5.20;;;3.10;99.90;;;;;;5133585;27;20232;-68
2022/02/01 09:50:41;;;;;;;8.97;4.70;;;3.00;99.90;;;;;;5134654;27;20235;-69
2022/02/01 09:53:08;;;;;;;10.97;5.47;;;2.90;99.90;;;;;;5135983;27;20287;-69
2022/02/01 09:55:36;;;;;;;13.83;6.30;;;3.10;99.90;;;;;;5144191;27;20282;-71
2022/02/01 09:58:03;;;;;;;11.30;5.07;;;3.30;99.90;;;;;;5135152;27;20311;-69
2022/02/01 10:00:34;;;;;;;12.87;6.23;;;3.50;99.90;;;;;;5136057;27;20248;-70
2022/02/01 10:03:03;;;;;;;10.23;6.03;;;3.70;99.90;;;;;;5142424;27;20625;-69
2022/02/01 10:05:31;;;;;;;11.17;5.90;;;4.20;99.90;;;;;;5139531;27;20210;-69
2022/02/01 10:07:59;;;;;;;14.30;6.70;;;4.70;99.90;;;;;;5129654;27;20235;-70
2022/02/01 10:10:30;;;;;;;13.07;6.27;;;5.00;99.90;;;;;;5124164;27;20623;-70
2022/02/01 10:13:00;;;;;;;10.97;6.13;;;5.00;99.90;;;;;;5133265;27;20194;-70
2022/02/01 10:15:33;;;;;;;9.93;6.13;;;5.20;99.90;;;;;;5140727;27;20203;-70
2022/02/01 10:18:02;;;;;;;9.97;6.13;;;5.80;99.90;;;;;;5138198;27;20339;-71
2022/02/01 10:20:39;;;;;;;8.10;5.47;;;6.20;99.90;;;;;;5144294;27;20230;-70
2022/02/01 10:23:21;;;;;;;10.77;5.93;;;6.20;97.50;;;;;;5141470;27;20547;-71
2022/02/01 10:25:59;;;;;;;11.80;6.60;;;5.90;96.80;;;;;;5136292;27;20207;-71
2022/02/01 10:28:36;;;;;;;11.23;7.03;;;5.60;97.00;;;;;;5134338;27;20660;-71
2022/02/01 10:31:13;;;;;;;12.70;6.20;;;5.30;97.30;;;;;;5136816;27;20332;-70
2022/02/01 10:33:59;;;;;;;11.43;5.10;;;5.20;99.40;;;;;;5131646;27;20267;-72
2022/02/01 10:36:36;;;;;;;7.83;4.87;;;5.40;99.90;;;;;;5135000;27;20195;-72
2022/02/01 10:39:07;;;;;;;8.83;4.37;;;6.70;99.90;;;;;;5146976;27;20198;-71
2022/02/01 10:41:34;;;;;;;9.63;4.60;;;7.60;97.80;;;;;;5139093;27;20236;-71
2022/02/01 10:44:03;;;;;;;10.57;5.50;;;7.40;93.20;;;;;;5143301;27;20243;-72
2022/02/01 10:46:29;;;;;;;13.27;5.83;;;7.00;92.10;;;;;;5136578;27;20207;-72
2022/02/01 10:48:56;;;;;;;12.13;5.50;;;6.60;92.10;;;;;;5137956;27;20310;-70
2022/02/01 10:51:25;;;;;;;9.40;5.67;;;6.20;93.00;;;;;;5147907;27;20202;-73
2022/02/01 10:53:54;;;;;;;11.77;4.90;;;5.90;93.40;;;;;;5140699;27;20203;-70
2022/02/01 10:56:24;;;;;;;10.43;5.70;;;5.60;94.10;;;;;;5132709;27;20814;-72
2022/02/01 10:58:52;;;;;;;13.33;5.17;;;6.10;99.90;;;;;;5125497;27;20214;-69
2022/02/01 11:01:21;;;;;;;11.67;5.60;;;8.00;99.90;;;;;;5138997;27;20210;-70
2022/02/01 11:03:50;;;;;;;9.97;4.57;;;9.00;95.90;;;;;;5136121;27;20218;-71
2022/02/01 11:06:17;;;;;;;10.13;5.43;;;8.80;89.10;;;;;;5140789;27;20703;-69
2022/02/01 11:08:46;;;;;;;14.53;5.90;;;8.30;86.70;;;;;;5119627;28;20299;-69
2022/02/01 11:11:17;;;;;;;10.40;5.33;;;8.00;88.00;;;;;;5123554;27;20546;-69
2022/02/01 11:13:46;;;;;;;11.27;5.77;;;7.60;85.50;;;;;;5139304;27;20205;-70
2022/02/01 11:16:18;;;;;;;8.80;5.53;;;7.20;88.00;;;;;;5131238;27;20218;-69
2022/02/01 11:18:55;;;;;;;12.03;6.03;;;6.80;88.80;;;;;;5143306;27;20202;-70
2022/02/01 11:21:22;;;;;;;12.63;5.23;;;6.60;90.60;;;;;;5135180;27;20191;-69
2022/02/01 11:23:54;;;;;;;11.37;6.47;;;6.30;90.50;;;;;;5147192;27;20425;-70
2022/02/01 11:26:25;;;;;;;15.47;6.70;;;6.10;90.70;;;;;;5125271;27;20224;-71
2022/02/01 11:29:15;;;;;;;11.17;6.37;;;5.80;91.80;;;;;;5142529;27;20715;-69
2022/02/01 11:31:45;;;;;;;12.93;6.30;;;6.10;96.30;;;;;;5143877;27;20202;-71
2022/02/01 11:34:18;;;;;;;13.60;6.27;;;6.90;93.70;;;;;;5151054;27;20201;-71
2022/02/01 11:36:46;;;;;;;11.53;6.53;;;7.10;91.30;;;;;;5124310;27;20291;-71
2022/02/01 11:39:16;;;;;;;18.67;7.03;;;7.10;90.70;;;;;;5133353;27;20291;-72
2022/02/01 11:41:44;;;;;;;11.77;6.50;;;7.10;91.20;;;;;;5136610;27;20675;-71
2022/02/01 11:44:13;;;;;;;13.77;6.83;;;7.10;91.00;;;;;;5132268;27;20199;-70
2022/02/01 11:46:48;;;;;;;14.00;6.60;;;7.00;90.60;;;;;;5135247;27;20314;-70
2022/02/01 11:49:23;;;;;;;11.90;6.30;;;6.70;90.30;;;;;;5140342;27;20226;-69
2022/02/01 11:51:52;;;;;;;12.00;6.37;;;6.30;90.70;;;;;;5138731;27;20219;-71
2022/02/01 11:54:24;;;;;;;12.23;7.13;;;6.20;92.20;;;;;;5129536;27;20613;-70
2022/02/01 11:56:51;;;;;;;13.00;5.60;;;6.50;93.40;;;;;;5135943;27;20239;-70
2022/02/01 11:59:26;;;;;;;12.23;6.27;;;7.70;97.20;;;;;;5118527;28;20290;-72
2022/02/01 12:02:06;;;;;;;8.87;5.57;;;9.00;93.00;;;;;;5146408;27;20253;-71
2022/02/01 12:04:43;;;;;;;10.93;6.20;;;10.40;88.50;;;;;;5124513;27;20191;-71
2022/02/01 12:07:11;;;;;;;10.53;5.60;;;10.60;78.80;;;;;;5123267;27;20307;-70
2022/02/01 12:09:42;;;;;;;11.07;5.90;;;10.70;77.50;;;;;;5137095;27;20219;-70
2022/02/01 12:12:11;;;;;;;9.27;6.40;;;10.70;74.30;;;;;;5147960;27;20207;-72
2022/02/01 12:14:39;;;;;;;11.40;5.93;;;10.40;70.60;;;;;;5139726;27;20474;-71
2022/02/01 12:17:06;;;;;;;12.27;5.80;;;9.80;71.80;;;;;;5146015;27;20207;-70
2022/02/01 12:19:39;;;;;;;11.53;6.03;;;9.20;73.30;;;;;;5140727;27;20207;-70
2022/02/01 12:22:26;;;;;;;11.13;4.83;;;8.50;73.90;;;;;;5139069;27;20283;-71
2022/02/01 12:25:01;;;;;;;10.40;5.73;;;8.00;75.20;;;;;;5132953;27;20719;-71
2022/02/01 12:27:34;;;;;;;8.53;5.10;;;7.50;77.00;;;;;;5136134;27;20199;-71
2022/02/01 12:30:02;;;;;;;11.73;5.60;;;7.00;77.90;;;;;;5133597;27;20204;-71
2022/02/01 12:32:29;;;;;;;11.20;5.40;;;6.60;79.40;;;;;;5142938;27;20203;-70
2022/02/01 12:34:56;;;;;;;11.97;4.77;;;6.30;81.40;;;;;;5138256;27;20266;-71
2022/02/01 12:37:24;;;;;;;10.90;5.33;;;6.00;82.30;;;;;;5137654;27;20287;-71
2022/02/01 12:40:02;;;;;;;9.17;5.07;;;5.70;83.50;;;;;;5139429;27;20223;-71
2022/02/01 12:42:35;;;;;;;9.53;5.03;;;5.40;84.70;;;;;;5143197;27;20234;-71
2022/02/01 12:47:47;;;;;;;11.20;5.73;;;4.80;86.70;;;;;;5129883;27;20293;-70
2022/02/01 12:50:15;;;;;;;12.40;5.47;;;4.50;88.40;;;;;;5138989;27;20263;-70
2022/02/01 12:52:43;;;;;;;9.03;5.17;;;4.30;90.00;;;;;;5138352;27;20199;-70
2022/02/01 12:55:12;;;;;;;11.37;5.40;;;4.20;90.70;;;;;;5144457;27;20203;-71
2022/02/01 12:57:40;;;;;;;11.90;5.93;;;4.00;91.30;;;;;;5135915;27;20306;-70
2022/02/01 13:00:13;;;;;;;10.40;5.23;;;3.90;91.80;;;;;;5137765;27;20279;-70
2022/02/01 13:02:40;;;;;;;12.97;7.17;;;3.70;92.30;;;;;;5132430;27;20235;-72
2022/02/01 13:05:08;;;;;;;12.90;6.67;;;3.60;93.00;;;;;;5139799;27;20272;-71
2022/02/01 13:07:55;;;;;;;13.47;5.90;;;3.50;93.70;;;;;;5140685;27;20734;-71
2022/02/01 13:14:11;;;;;;;14.80;6.53;;;3.40;95.00;;;;;;5134508;27;20397;-70
2022/02/01 13:16:24;;;;;;;14.07;7.33;;;3.30;95.90;;;;;;5139030;27;20210;-72
2022/02/01 13:21:47;;;;;;;13.40;6.30;;;3.20;97.00;;;;;;5144207;27;20191;-71
2022/02/01 13:24:14;;;;;;;13.07;6.73;;;3.10;97.50;;;;;;5126833;27;20208;-71
2022/02/01 13:26:45;;;;;;;11.00;6.03;;;3.10;98.00;;;;;;5135398;27;20294;-71
2022/02/01 13:29:14;;;;;;;17.73;6.60;;;3.00;98.50;;;;;;5130354;27;20303;-69
2022/02/01 13:31:48;;;;;;;11.60;6.20;;;3.00;99.00;;;;;;5134600;27;20302;-69
2022/02/01 13:34:16;;;;;;;14.33;6.20;;;2.90;99.80;;;;;;5133611;27;20287;-69
2022/02/01 13:36:47;;;;;;;13.73;6.73;;;2.80;99.90;;;;;;5129849;27;20199;-69
2022/02/01 13:39:24;;;;;;;13.03;7.27;;;2.70;99.90;;;;;;5140752;27;20203;-71
2022/02/01 13:41:58;;;;;;;14.07;6.73;;;2.70;99.90;;;;;;5133392;27;20202;-69
2022/02/01 13:44:25;;;;;;;12.90;6.53;;;2.60;99.90;;;;;;5135246;27;20237;-70
2022/02/01 13:47:00;;;;;;;15.37;7.40;;;2.50;99.90;;;;;;5138104;27;20294;-70
2022/02/01 13:49:27;;;;;;;13.17;7.03;;;2.50;99.90;;;;;;5131111;27;20640;-69
2022/02/01 13:51:54;;;;;;;12.37;7.30;;;2.40;99.90;;;;;;5136028;27;20214;-69
2022/02/01 13:54:22;;;;;;;16.33;7.07;;;2.30;99.90;;;;;;5141104;27;20616;-71
2022/02/01 13:56:52;;;;;;;16.60;7.83;;;2.30;99.90;;;;;;5135162;27;20711;-70
2022/02/01 13:59:24;;;;;;;13.93;7.47;;;2.30;99.90;;;;;;5137642;27;20203;-71
2022/02/01 14:02:02;;;;;;;15.30;8.27;;;2.20;99.90;;;;;;5134090;27;20229;-69
2022/02/01 14:04:36;;;;;;;14.40;8.27;;;2.20;99.90;;;;;;5134198;27;20199;-67
2022/02/01 14:07:12;;;;;;;15.37;7.67;;;2.20;99.90;;;;;;5136307;27;20645;-68
2022/02/01 14:09:51;;;;;;;16.20;8.67;;;2.10;99.90;;;;;;5135688;27;20215;-69
2022/02/01 14:26:39;;;;;;;14.17;8.47;;;1.90;99.90;;;;;;5054476;28;20202;-69